Time;durP1;ratioP1;P1;durP2;ratioP2;P2;SDS_P1;SDS_P2;PMS_P1;PMS_P2;Temp;Humidity;BMP_temperature;BMP_pressure;BME280_temperature;BME280_humidity;BME280_pressure;Samples;Min_cycle;Max_cycle;Signal;HPM_P1;HPM_P2
2022/09/10 00:00:01;;;;;;;9.27;8.38;;;;;;;;;;5030434;28;20041;-63
2022/09/10 00:02:27;;;;;;;13.38;9.60;;;;;;;;;;5033175;28;20037;-63
2022/09/10 00:04:53;;;;;;;12.20;8.55;;;;;;;;;;5050834;28;20044;-63
2022/09/10 00:07:19;;;;;;;11.15;10.05;;;;;;;;;;5049444;28;20068;-62
2022/09/10 00:09:45;;;;;;;11.32;8.98;;;;;;;;;;5050356;28;20056;-62
2022/09/10 00:12:11;;;;;;;17.33;10.07;;;;;;;;;;5050386;28;20033;-62
2022/09/10 00:14:38;;;;;;;12.20;10.38;;;;;;;;;;5049958;28;20045;-62
2022/09/10 00:17:04;;;;;;;13.40;9.65;;;;;;;;;;5050528;28;20064;-62
2022/09/10 00:19:30;;;;;;;16.67;11.32;;;;;;;;;;5050333;28;20147;-62
2022/09/10 00:21:56;;;;;;;11.32;9.88;;;;;;;;;;5050001;28;20048;-62
2022/09/10 00:24:23;;;;;;;12.85;10.77;;;;;;;;;;5050463;28;20041;-62
2022/09/10 00:26:50;;;;;;;11.57;10.15;;;;;;;;;;5035525;28;20427;-62
2022/09/10 00:29:17;;;;;;;13.65;10.48;;;;;;;;;;5030345;28;20041;-63
2022/09/10 00:31:46;;;;;;;15.30;11.55;;;;;;;;;;5030624;28;20045;-62
2022/09/10 00:34:13;;;;;;;12.23;10.43;;;;;;;;;;5012875;28;20186;-62
2022/09/10 00:36:40;;;;;;;13.93;11.25;;;;;;;;;;5029998;28;20515;-62
2022/09/10 00:39:08;;;;;;;16.45;10.98;;;;;;;;;;5030629;28;20484;-62
2022/09/10 00:41:35;;;;;;;17.98;12.27;;;;;;;;;;5030386;28;20150;-62
2022/09/10 00:44:28;;;;;;;16.17;11.27;;;;;;;;;;5030028;28;20373;-63
2022/09/10 00:46:55;;;;;;;18.88;11.93;;;;;;;;;;4976470;28;20581;-63
2022/09/10 00:49:28;;;;;;;15.32;11.48;;;;;;;;;;5030392;28;20532;-63
2022/09/10 00:51:54;;;;;;;16.00;11.48;;;;;;;;;;5030068;28;20045;-63
2022/09/10 00:54:23;;;;;;;13.50;10.40;;;;;;;;;;5012602;28;20111;-63
2022/09/10 00:56:51;;;;;;;14.07;11.75;;;;;;;;;;5030224;28;20038;-63
2022/09/10 00:59:20;;;;;;;15.23;12.80;;;;;;;;;;5029878;28;20056;-63
2022/09/10 01:01:47;;;;;;;19.30;13.27;;;;;;;;;;5030208;28;20081;-63
2022/09/10 01:04:14;;;;;;;15.40;12.45;;;;;;;;;;5047176;28;20036;-63
2022/09/10 01:06:41;;;;;;;17.70;14.15;;;;;;;;;;5031697;28;20039;-63
2022/09/10 01:09:08;;;;;;;17.77;12.95;;;;;;;;;;5049921;28;20072;-63
2022/09/10 01:11:46;;;;;;;16.52;12.75;;;;;;;;;;5032117;28;20507;-63
2022/09/10 01:14:12;;;;;;;17.27;13.95;;;;;;;;;;5049788;28;20079;-63
2022/09/10 01:16:44;;;;;;;20.38;14.48;;;;;;;;;;5049949;28;20047;-63
2022/09/10 01:19:21;;;;;;;18.25;13.70;;;;;;;;;;5051773;28;20044;-63
2022/09/10 01:21:57;;;;;;;15.75;13.35;;;;;;;;;;5053209;28;20055;-62
2022/09/10 01:24:42;;;;;;;20.27;14.18;;;;;;;;;;5053397;28;20094;-62
2022/09/10 01:27:27;;;;;;;20.85;14.02;;;;;;;;;;5036018;28;20038;-62
2022/09/10 01:29:57;;;;;;;17.25;13.20;;;;;;;;;;5033245;28;20037;-62
2022/09/10 01:32:43;;;;;;;18.90;14.35;;;;;;;;;;5015688;28;20050;-62
2022/09/10 01:35:14;;;;;;;24.95;15.20;;;;;;;;;;5016355;28;20052;-63
2022/09/10 01:37:42;;;;;;;20.55;15.70;;;;;;;;;;5033075;28;20115;-62
2022/09/10 01:40:09;;;;;;;22.25;16.55;;;;;;;;;;5033510;28;20063;-62
2022/09/10 01:42:36;;;;;;;19.42;15.43;;;;;;;;;;5033497;28;20070;-63
2022/09/10 01:45:02;;;;;;;23.33;16.33;;;;;;;;;;5032785;28;20041;-63
2022/09/10 01:47:48;;;;;;;22.80;16.80;;;;;;;;;;5015206;28;20045;-63
2022/09/10 01:50:23;;;;;;;21.92;15.20;;;;;;;;;;5033558;28;20053;-63
2022/09/10 01:52:58;;;;;;;19.83;14.55;;;;;;;;;;5032936;28;20065;-63
2022/09/10 01:55:40;;;;;;;22.50;15.90;;;;;;;;;;5033284;28;20041;-63
2022/09/10 01:58:06;;;;;;;;;;;;;;;;;;5015317;28;20047;-63
2022/09/10 02:00:33;;;;;;;21.98;16.05;;;;;;;;;;5032915;28;20003;-63
2022/09/10 02:02:59;;;;;;;23.67;15.45;;;;;;;;;;5021892;28;20032;-63
2022/09/10 02:05:27;;;;;;;19.85;15.88;;;;;;;;;;5052498;28;20489;-63
2022/09/10 02:07:55;;;;;;;20.13;15.25;;;;;;;;;;5052776;28;20036;-62
2022/09/10 02:10:22;;;;;;;20.02;16.50;;;;;;;;;;5052515;28;20057;-62
2022/09/10 02:12:48;;;;;;;22.85;15.52;;;;;;;;;;5052519;28;20673;-62
2022/09/10 02:15:15;;;;;;;21.02;14.98;;;;;;;;;;5052897;28;20037;-63
2022/09/10 02:17:42;;;;;;;19.20;15.98;;;;;;;;;;5052668;28;20385;-63
2022/09/10 02:20:10;;;;;;;20.45;15.48;;;;;;;;;;5051984;28;20060;-62
2022/09/10 02:22:36;;;;;;;21.48;15.73;;;;;;;;;;5052574;28;20333;-62
2022/09/10 02:25:03;;;;;;;20.95;15.30;;;;;;;;;;5052223;28;20048;-62
2022/09/10 02:27:29;;;;;;;20.60;15.25;;;;;;;;;;5032232;28;20034;-63
2022/09/10 02:29:56;;;;;;;21.05;14.30;;;;;;;;;;5032225;28;20041;-63
2022/09/10 02:32:22;;;;;;;21.60;16.13;;;;;;;;;;5031914;28;20034;-63
2022/09/10 02:34:48;;;;;;;22.92;15.63;;;;;;;;;;5031519;28;20054;-63
2022/09/10 02:37:15;;;;;;;19.85;16.00;;;;;;;;;;5031281;28;20037;-62
2022/09/10 02:39:42;;;;;;;17.95;14.95;;;;;;;;;;5031095;28;20041;-62
2022/09/10 02:42:08;;;;;;;20.48;16.02;;;;;;;;;;5031206;28;20045;-62
2022/09/10 02:44:34;;;;;;;18.70;15.38;;;;;;;;;;5031189;28;20041;-62
2022/09/10 02:47:00;;;;;;;21.10;16.27;;;;;;;;;;5031517;28;20464;-62
2022/09/10 02:49:27;;;;;;;21.52;14.98;;;;;;;;;;5031735;28;20531;-62
2022/09/10 02:51:53;;;;;;;19.65;15.15;;;;;;;;;;5031255;28;20615;-62
2022/09/10 02:54:19;;;;;;;21.10;15.27;;;;;;;;;;5032152;28;20521;-62
2022/09/10 02:56:49;;;;;;;24.83;15.48;;;;;;;;;;5013975;28;20041;-62
2022/09/10 02:59:16;;;;;;;20.30;15.73;;;;;;;;;;5031560;28;20045;-62
2022/09/10 03:01:42;;;;;;;23.15;15.23;;;;;;;;;;5031600;28;20049;-62
2022/09/10 03:04:08;;;;;;;22.73;15.05;;;;;;;;;;5048029;28;20396;-62
2022/09/10 03:06:35;;;;;;;19.58;14.90;;;;;;;;;;5033295;28;20056;-62
2022/09/10 03:09:02;;;;;;;23.13;15.90;;;;;;;;;;5051271;28;20128;-62
2022/09/10 03:11:28;;;;;;;20.00;15.68;;;;;;;;;;5051387;28;20060;-62
2022/09/10 03:13:54;;;;;;;20.80;15.10;;;;;;;;;;5051200;28;20091;-62
2022/09/10 03:16:20;;;;;;;21.73;16.27;;;;;;;;;;5051589;28;20077;-62
2022/09/10 03:18:46;;;;;;;22.88;16.40;;;;;;;;;;5051439;28;20044;-62
2022/09/10 03:21:13;;;;;;;22.70;15.15;;;;;;;;;;5051049;28;20045;-62
2022/09/10 03:23:40;;;;;;;22.58;16.00;;;;;;;;;;5051442;28;20041;-62
2022/09/10 03:26:06;;;;;;;22.60;15.23;;;;;;;;;;5042200;28;20037;-62
2022/09/10 03:28:32;;;;;;;19.85;16.48;;;;;;;;;;5030784;28;20064;-62
2022/09/10 03:30:58;;;;;;;23.77;16.10;;;;;;;;;;5031326;28;20734;-62
2022/09/10 03:33:24;;;;;;;20.27;15.52;;;;;;;;;;5031432;28;20049;-63
2022/09/10 03:35:53;;;;;;;22.80;15.10;;;;;;;;;;5030938;28;20041;-63
2022/09/10 03:38:19;;;;;;;24.20;14.95;;;;;;;;;;5031277;28;20480;-62
2022/09/10 03:40:45;;;;;;;20.90;15.18;;;;;;;;;;5030892;28;20052;-62
2022/09/10 03:43:11;;;;;;;22.10;15.77;;;;;;;;;;4995606;28;20443;-62
2022/09/10 03:45:38;;;;;;;23.80;16.95;;;;;;;;;;5031211;28;20044;-62
2022/09/10 03:48:04;;;;;;;21.75;14.90;;;;;;;;;;5031067;28;20045;-62
2022/09/10 03:50:30;;;;;;;23.23;15.85;;;;;;;;;;5030801;28;20041;-62
2022/09/10 03:52:56;;;;;;;23.70;15.52;;;;;;;;;;5031019;28;20041;-62
2022/09/10 03:55:23;;;;;;;20.65;15.18;;;;;;;;;;5031075;28;20124;-62
2022/09/10 03:57:49;;;;;;;20.60;15.73;;;;;;;;;;5030514;28;20034;-62
2022/09/10 04:00:15;;;;;;;24.13;17.70;;;;;;;;;;5030876;28;20045;-62
2022/09/10 04:02:42;;;;;;;21.83;15.68;;;;;;;;;;5034953;28;20029;-62
2022/09/10 04:05:09;;;;;;;25.52;16.42;;;;;;;;;;5050128;28;20061;-62
2022/09/10 04:07:35;;;;;;;22.88;15.65;;;;;;;;;;5050476;28;20681;-63
2022/09/10 04:10:02;;;;;;;19.88;15.55;;;;;;;;;;5050492;28;20088;-62
2022/09/10 04:12:28;;;;;;;22.73;15.75;;;;;;;;;;5032233;28;20055;-62
2022/09/10 04:14:55;;;;;;;23.90;17.13;;;;;;;;;;5050816;28;20094;-62
2022/09/10 04:17:22;;;;;;;22.73;15.43;;;;;;;;;;5050682;28;20117;-62
2022/09/10 04:19:49;;;;;;;22.90;16.02;;;;;;;;;;5049979;28;20053;-62
2022/09/10 04:22:15;;;;;;;21.02;16.17;;;;;;;;;;5050638;28;20383;-62
2022/09/10 04:24:43;;;;;;;23.80;16.80;;;;;;;;;;5050599;28;20080;-62
2022/09/10 04:27:09;;;;;;;23.30;16.88;;;;;;;;;;5032052;28;20041;-62
2022/09/10 04:29:36;;;;;;;23.10;16.17;;;;;;;;;;5030856;28;20497;-62
2022/09/10 04:32:03;;;;;;;23.25;16.38;;;;;;;;;;5030665;28;20139;-62
2022/09/10 04:34:29;;;;;;;23.67;16.73;;;;;;;;;;5030230;28;20033;-62
2022/09/10 04:36:55;;;;;;;25.08;15.80;;;;;;;;;;5030650;28;20047;-62
2022/09/10 04:39:21;;;;;;;27.35;17.00;;;;;;;;;;5030621;28;20048;-62
2022/09/10 04:41:47;;;;;;;23.33;16.50;;;;;;;;;;5030145;28;20100;-62
2022/09/10 04:44:13;;;;;;;28.80;18.50;;;;;;;;;;5030457;28;20034;-62
2022/09/10 04:46:40;;;;;;;24.60;17.20;;;;;;;;;;5030515;28;20041;-62
2022/09/10 04:49:06;;;;;;;27.60;16.60;;;;;;;;;;5030120;28;20049;-62
2022/09/10 04:51:32;;;;;;;27.20;17.00;;;;;;;;;;5030466;28;20432;-62
2022/09/10 04:53:59;;;;;;;25.15;15.52;;;;;;;;;;5013887;28;20123;-62
2022/09/10 04:56:25;;;;;;;24.48;16.42;;;;;;;;;;5033964;28;20041;-62
2022/09/10 04:58:51;;;;;;;25.45;17.20;;;;;;;;;;5034212;28;20616;-62
2022/09/10 05:01:17;;;;;;;22.30;15.73;;;;;;;;;;5034064;28;20046;-63
2022/09/10 05:03:43;;;;;;;29.98;18.52;;;;;;;;;;5046500;28;20044;-62
2022/09/10 05:06:09;;;;;;;22.13;16.60;;;;;;;;;;5053970;28;20037;-62
2022/09/10 05:08:35;;;;;;;28.20;17.67;;;;;;;;;;5053614;28;20081;-62
2022/09/10 05:11:01;;;;;;;26.52;17.67;;;;;;;;;;5053338;28;20053;-62
2022/09/10 05:13:30;;;;;;;25.90;17.20;;;;;;;;;;5053671;28;20052;-62
2022/09/10 05:15:57;;;;;;;27.73;16.67;;;;;;;;;;5054038;28;20041;-62
2022/09/10 05:18:25;;;;;;;29.17;17.33;;;;;;;;;;5053431;28;20052;-62
2022/09/10 05:20:51;;;;;;;32.70;19.50;;;;;;;;;;5035666;28;20081;-62
2022/09/10 05:23:18;;;;;;;31.08;17.52;;;;;;;;;;5053805;28;20375;-62
2022/09/10 05:25:45;;;;;;;26.23;17.10;;;;;;;;;;5047169;28;20041;-62
2022/09/10 05:28:11;;;;;;;27.33;17.70;;;;;;;;;;5033691;28;20045;-62
2022/09/10 05:30:37;;;;;;;28.58;16.95;;;;;;;;;;5033780;28;20037;-62
2022/09/10 05:33:03;;;;;;;28.60;17.90;;;;;;;;;;5033380;28;20052;-62
2022/09/10 05:35:29;;;;;;;29.38;16.83;;;;;;;;;;5033760;28;20041;-62
2022/09/10 05:37:59;;;;;;;29.13;16.95;;;;;;;;;;5033395;28;20191;-62
2022/09/10 05:40:28;;;;;;;27.63;17.05;;;;;;;;;;5033175;28;20093;-62
2022/09/10 05:42:54;;;;;;;30.85;17.38;;;;;;;;;;5015654;28;20628;-62
2022/09/10 05:45:22;;;;;;;23.73;16.15;;;;;;;;;;5033511;28;20042;-62
2022/09/10 05:47:48;;;;;;;34.63;18.35;;;;;;;;;;5032972;28;20100;-62
2022/09/10 05:50:16;;;;;;;27.58;17.73;;;;;;;;;;5033248;28;20038;-62
2022/09/10 05:52:42;;;;;;;27.23;17.98;;;;;;;;;;5033313;28;20380;-62
2022/09/10 05:55:08;;;;;;;26.70;17.73;;;;;;;;;;5032789;28;20446;-62
2022/09/10 05:57:34;;;;;;;32.75;17.73;;;;;;;;;;5015482;28;20033;-62
2022/09/10 06:00:00;;;;;;;31.73;17.95;;;;;;;;;;5033103;28;20095;-62
2022/09/10 06:02:26;;;;;;;33.30;19.83;;;;;;;;;;5034798;28;20459;-62
2022/09/10 06:04:52;;;;;;;28.80;16.65;;;;;;;;;;5034389;28;20128;-62
2022/09/10 06:07:18;;;;;;;28.88;16.35;;;;;;;;;;5052586;28;20128;-62
2022/09/10 06:09:44;;;;;;;34.58;18.70;;;;;;;;;;5052261;28;20060;-62
2022/09/10 06:12:10;;;;;;;34.92;17.83;;;;;;;;;;5052838;28;20037;-62
2022/09/10 06:14:36;;;;;;;36.75;18.83;;;;;;;;;;5052798;28;20078;-63
2022/09/10 06:17:03;;;;;;;30.50;18.63;;;;;;;;;;5052188;28;20055;-63
2022/09/10 06:19:29;;;;;;;29.73;18.20;;;;;;;;;;5052754;28;20127;-63
2022/09/10 06:21:55;;;;;;;38.78;19.55;;;;;;;;;;5052565;28;20594;-62
2022/09/10 06:24:23;;;;;;;37.28;19.60;;;;;;;;;;5052180;28;20036;-62
2022/09/10 06:26:49;;;;;;;33.88;19.63;;;;;;;;;;5037641;28;20049;-62
2022/09/10 06:29:17;;;;;;;28.90;17.73;;;;;;;;;;5032544;28;20087;-62
2022/09/10 06:31:43;;;;;;;28.80;17.88;;;;;;;;;;5032163;28;20116;-62
2022/09/10 06:34:10;;;;;;;31.02;17.38;;;;;;;;;;5032585;28;20040;-63
2022/09/10 06:36:36;;;;;;;35.97;19.17;;;;;;;;;;5032452;28;20045;-63
2022/09/10 06:39:02;;;;;;;30.85;18.00;;;;;;;;;;5032376;28;20443;-63
2022/09/10 06:41:30;;;;;;;31.55;19.35;;;;;;;;;;5014194;28;20133;-63
2022/09/10 06:43:59;;;;;;;35.42;19.95;;;;;;;;;;5032533;28;20049;-63
2022/09/10 06:46:25;;;;;;;26.95;17.70;;;;;;;;;;5032096;28;20053;-63
2022/09/10 06:48:51;;;;;;;32.53;18.75;;;;;;;;;;5031886;28;20033;-63
2022/09/10 06:51:17;;;;;;;31.52;19.30;;;;;;;;;;5032262;28;20038;-63
2022/09/10 06:53:47;;;;;;;33.88;19.38;;;;;;;;;;5032104;28;20046;-63
2022/09/10 06:56:14;;;;;;;33.33;19.17;;;;;;;;;;5031723;28;20116;-63
2022/09/10 06:58:40;;;;;;;31.42;19.33;;;;;;;;;;5032012;28;20084;-62
2022/09/10 07:01:14;;;;;;;31.88;20.20;;;;;;;;;;5031875;28;20045;-63
2022/09/10 07:03:42;;;;;;;37.50;20.33;;;;;;;;;;5043707;28;20496;-63
2022/09/10 07:06:09;;;;;;;33.38;17.95;;;;;;;;;;5051621;28;20052;-63
2022/09/10 07:08:36;;;;;;;43.30;22.25;;;;;;;;;;5051437;28;20131;-63
2022/09/10 07:11:03;;;;;;;37.75;21.10;;;;;;;;;;5051338;28;20075;-63
2022/09/10 07:13:30;;;;;;;38.45;19.33;;;;;;;;;;5051583;28;20086;-63
2022/09/10 07:15:56;;;;;;;32.47;19.83;;;;;;;;;;5051362;28;20048;-63
2022/09/10 07:18:23;;;;;;;34.17;18.25;;;;;;;;;;5050869;28;20124;-63
2022/09/10 07:20:49;;;;;;;31.90;19.60;;;;;;;;;;5051323;28;20128;-63
2022/09/10 07:23:17;;;;;;;38.13;22.60;;;;;;;;;;5051348;28;20033;-63
2022/09/10 07:25:43;;;;;;;34.67;20.50;;;;;;;;;;5045260;28;20048;-63
2022/09/10 07:28:12;;;;;;;29.23;18.25;;;;;;;;;;5031074;28;20041;-63
2022/09/10 07:30:41;;;;;;;30.65;19.75;;;;;;;;;;5031563;28;20412;-63
2022/09/10 07:33:07;;;;;;;35.30;19.90;;;;;;;;;;5013209;28;20041;-63
2022/09/10 07:35:35;;;;;;;31.23;18.85;;;;;;;;;;5031339;28;20370;-63
2022/09/10 07:38:01;;;;;;;32.55;19.95;;;;;;;;;;5030877;28;20164;-63
2022/09/10 07:40:27;;;;;;;31.83;19.67;;;;;;;;;;5030898;28;20484;-63
2022/09/10 07:42:57;;;;;;;35.28;18.80;;;;;;;;;;5031193;28;20171;-63
2022/09/10 07:45:24;;;;;;;31.90;19.98;;;;;;;;;;5030942;28;20052;-64
2022/09/10 07:47:50;;;;;;;32.97;19.83;;;;;;;;;;5030701;28;20353;-63
2022/09/10 07:50:18;;;;;;;36.95;19.23;;;;;;;;;;5030871;28;20041;-63
2022/09/10 07:52:44;;;;;;;34.40;19.98;;;;;;;;;;5031153;28;20037;-63
2022/09/10 07:55:10;;;;;;;31.50;18.85;;;;;;;;;;5030633;28;20037;-63
2022/09/10 07:57:37;;;;;;;33.03;18.55;;;;;;;;;;5030621;28;20051;-63
2022/09/10 08:00:13;;;;;;;31.48;17.73;;;;;;;;;;5031011;28;20120;-63
2022/09/10 08:02:46;;;;;;;30.98;18.50;;;;;;;;;;5034313;28;20037;-63
2022/09/10 08:05:12;;;;;;;30.70;17.48;;;;;;;;;;5050363;28;20047;-63
2022/09/10 08:07:38;;;;;;;26.15;16.10;;;;;;;;;;5050373;28;20049;-63
2022/09/10 08:10:08;;;;;;;24.60;16.33;;;;;;;;;;5050157;28;20420;-63
2022/09/10 08:12:38;;;;;;;27.02;15.48;;;;;;;;;;5050813;28;20110;-63
2022/09/10 08:15:05;;;;;;;25.20;15.65;;;;;;;;;;5050560;28;20084;-63
2022/09/10 08:17:31;;;;;;;22.38;14.77;;;;;;;;;;5049883;28;20037;-63
2022/09/10 08:19:58;;;;;;;24.58;14.63;;;;;;;;;;5050754;28;20827;-63
2022/09/10 08:22:24;;;;;;;28.25;16.95;;;;;;;;;;5050391;28;20580;-63
2022/09/10 08:24:50;;;;;;;23.38;15.18;;;;;;;;;;5049935;28;20045;-63
2022/09/10 08:27:16;;;;;;;24.20;15.38;;;;;;;;;;5031926;28;20558;-63
2022/09/10 08:29:43;;;;;;;25.38;15.60;;;;;;;;;;5035794;28;20095;-63
2022/09/10 08:32:11;;;;;;;22.45;14.68;;;;;;;;;;5018900;28;20049;-63
2022/09/10 08:34:37;;;;;;;23.90;14.85;;;;;;;;;;5037405;28;20116;-63
2022/09/10 08:37:03;;;;;;;21.45;13.63;;;;;;;;;;5037097;28;20129;-63
2022/09/10 08:39:30;;;;;;;22.02;13.07;;;;;;;;;;5036831;28;20085;-63
2022/09/10 08:42:02;;;;;;;17.95;12.48;;;;;;;;;;5018972;28;20076;-63
2022/09/10 08:44:30;;;;;;;21.35;13.02;;;;;;;;;;5036388;28;20139;-63
2022/09/10 08:47:12;;;;;;;20.70;12.88;;;;;;;;;;5035893;28;20125;-63
2022/09/10 08:49:44;;;;;;;18.25;11.57;;;;;;;;;;5036313;28;20052;-63
2022/09/10 08:52:19;;;;;;;16.48;12.75;;;;;;;;;;5036030;28;20084;-63
2022/09/10 08:54:52;;;;;;;15.88;12.95;;;;;;;;;;5036240;28;20045;-63
2022/09/10 08:57:39;;;;;;;22.00;12.27;;;;;;;;;;5036328;28;20498;-63
2022/09/10 09:00:07;;;;;;;19.88;12.65;;;;;;;;;;5036208;28;20384;-63
2022/09/10 09:02:51;;;;;;;21.58;13.07;;;;;;;;;;5039637;28;20040;-63
2022/09/10 09:05:24;;;;;;;18.33;13.23;;;;;;;;;;5056898;28;20044;-63
2022/09/10 09:07:51;;;;;;;19.67;13.75;;;;;;;;;;5056340;28;20438;-63
2022/09/10 09:10:30;;;;;;;23.52;14.20;;;;;;;;;;5056491;28;20057;-63
2022/09/10 09:12:56;;;;;;;19.85;12.45;;;;;;;;;;5056820;28;20040;-63
2022/09/10 09:15:25;;;;;;;19.30;13.65;;;;;;;;;;5056425;28;20044;-63
2022/09/10 09:18:03;;;;;;;19.70;13.48;;;;;;;;;;5056801;28;20033;-63
2022/09/10 09:20:45;;;;;;;21.73;13.95;;;;;;;;;;5056742;28;20068;-63
2022/09/10 09:23:26;;;;;;;20.07;12.70;;;;;;;;;;5056123;28;20427;-63
2022/09/10 09:26:08;;;;;;;15.45;10.82;;;;;;;;;;5049821;28;20842;-63
2022/09/10 09:28:43;;;;;;;12.18;8.73;;;;;;;;;;5036748;28;20391;-63
2022/09/10 09:31:15;;;;;;;10.52;6.80;;;;;;;;;;5036400;28;20114;-63
2022/09/10 09:33:41;;;;;;;8.60;6.15;;;;;;;;;;5036287;28;20110;-63
2022/09/10 09:36:07;;;;;;;10.80;6.30;;;;;;;;;;5036662;28;20057;-63
2022/09/10 09:38:41;;;;;;;11.52;7.80;;;;;;;;;;5036240;28;20056;-63
2022/09/10 09:41:14;;;;;;;15.85;10.65;;;;;;;;;;5033923;28;20172;-63
2022/09/10 09:43:55;;;;;;;15.60;9.30;;;;;;;;;;5033508;28;20041;-63
2022/09/10 09:46:25;;;;;;;10.63;5.38;;;;;;;;;;5033024;28;20041;-63
2022/09/10 09:48:55;;;;;;;6.13;4.53;;;;;;;;;;5033311;28;20044;-63
2022/09/10 09:51:24;;;;;;;8.57;4.97;;;;;;;;;;5033319;28;20041;-63
2022/09/10 09:53:52;;;;;;;8.80;4.90;;;;;;;;;;5032717;28;20124;-63
2022/09/10 09:56:23;;;;;;;6.90;4.10;;;;;;;;;;5033372;28;20084;-63
2022/09/10 09:58:49;;;;;;;10.75;6.57;;;;;;;;;;5033135;28;20049;-63
2022/09/10 10:01:22;;;;;;;11.68;7.28;;;;;;;;;;5032842;28;20504;-63
2022/09/10 10:03:57;;;;;;;7.07;5.80;;;;;;;;;;5046164;28;20060;-63
2022/09/10 10:06:28;;;;;;;12.30;7.50;;;;;;;;;;5052635;28;20388;-63
2022/09/10 10:09:00;;;;;;;9.93;6.15;;;;;;;;;;5052413;28;20472;-63
2022/09/10 10:11:47;;;;;;;13.05;8.68;;;;;;;;;;5052949;28;20559;-63
2022/09/10 10:14:24;;;;;;;13.35;9.70;;;;;;;;;;5034986;28;20122;-63
2022/09/10 10:16:51;;;;;;;13.07;8.55;;;;;;;;;;5052869;28;20091;-63
2022/09/10 10:19:28;;;;;;;12.07;8.70;;;;;;;;;;5052826;28;20455;-63
2022/09/10 10:21:54;;;;;;;13.88;8.10;;;;;;;;;;5052299;28;20040;-63
2022/09/10 10:24:31;;;;;;;14.57;8.70;;;;;;;;;;5052632;28;20044;-63
2022/09/10 10:26:58;;;;;;;11.52;8.00;;;;;;;;;;5036671;28;20111;-63
2022/09/10 10:29:24;;;;;;;9.25;6.70;;;;;;;;;;5032423;28;20041;-63
2022/09/10 10:31:50;;;;;;;11.25;7.45;;;;;;;;;;5032623;28;20067;-63
2022/09/10 10:34:16;;;;;;;9.45;6.65;;;;;;;;;;5032505;28;20476;-63
2022/09/10 10:36:55;;;;;;;13.23;7.57;;;;;;;;;;5031942;28;20132;-63
2022/09/10 10:39:36;;;;;;;7.90;5.90;;;;;;;;;;5032150;28;20073;-63
2022/09/10 10:42:12;;;;;;;9.93;6.20;;;;;;;;;;5032286;28;20099;-63
2022/09/10 10:44:56;;;;;;;8.00;5.65;;;;;;;;;;5031674;28;20280;-63
2022/09/10 10:47:28;;;;;;;9.65;5.45;;;;;;;;;;5032128;28;20084;-63
2022/09/10 10:49:54;;;;;;;;;;;;;;;;;;5014480;28;20049;-63
2022/09/10 10:52:20;;;;;;;10.45;5.50;;;;;;;;;;5030985;28;19923;-63
2022/09/10 10:55:04;;;;;;;8.98;5.80;;;;;;;;;;5032158;28;20120;-63
2022/09/10 10:57:38;;;;;;;8.15;5.28;;;;;;;;;;5031629;28;20092;-63
2022/09/10 11:00:08;;;;;;;6.88;4.43;;;;;;;;;;5031806;28;20369;-63
2022/09/10 11:02:38;;;;;;;6.38;4.80;;;;;;;;;;5034916;28;20047;-63
2022/09/10 11:05:15;;;;;;;9.77;5.82;;;;;;;;;;5051932;28;20091;-63
2022/09/10 11:07:42;;;;;;;10.98;7.15;;;;;;;;;;5051319;28;20093;-63
2022/09/10 11:10:14;;;;;;;9.57;5.13;;;;;;;;;;5051341;28;20085;-63
2022/09/10 11:12:50;;;;;;;7.80;4.70;;;;;;;;;;5051803;28;20032;-63
2022/09/10 11:15:29;;;;;;;8.75;4.47;;;;;;;;;;5051324;28;20072;-63
2022/09/10 11:17:59;;;;;;;8.35;5.40;;;;;;;;;;5033657;28;20043;-63
2022/09/10 11:20:31;;;;;;;9.35;6.00;;;;;;;;;;5051139;28;20045;-63
2022/09/10 11:23:09;;;;;;;11.00;6.65;;;;;;;;;;5051562;28;20790;-63
2022/09/10 11:25:43;;;;;;;8.40;5.78;;;;;;;;;;5046759;28;20041;-63
2022/09/10 11:28:13;;;;;;;9.02;5.65;;;;;;;;;;5031231;28;20045;-63
2022/09/10 11:30:42;;;;;;;9.27;5.15;;;;;;;;;;5031527;28;20391;-63
2022/09/10 11:33:16;;;;;;;11.73;5.50;;;;;;;;;;5031705;28;20527;-63
2022/09/10 11:35:45;;;;;;;9.02;6.55;;;;;;;;;;5031163;28;20064;-63
2022/09/10 11:38:11;;;;;;;11.65;5.65;;;;;;;;;;5031205;28;20087;-63
2022/09/10 11:40:40;;;;;;;9.63;6.13;;;;;;;;;;5031389;28;20125;-63
2022/09/10 11:43:12;;;;;;;9.48;6.25;;;;;;;;;;5030897;28;20079;-63
2022/09/10 11:45:45;;;;;;;10.52;6.25;;;;;;;;;;5031365;28;20099;-63
2022/09/10 11:48:11;;;;;;;8.38;6.25;;;;;;;;;;5031105;28;20041;-63
2022/09/10 11:50:43;;;;;;;8.43;6.13;;;;;;;;;;5030805;28;20507;-63
2022/09/10 11:53:09;;;;;;;;;;;;;;;;;;5031599;28;20132;-63
2022/09/10 11:55:38;;;;;;;10.50;5.28;;;;;;;;;;5031055;28;20011;-63
2022/09/10 11:58:10;;;;;;;9.18;5.55;;;;;;;;;;5030605;28;20095;-63
2022/09/10 12:00:41;;;;;;;10.63;6.35;;;;;;;;;;5030982;28;20068;-63
2022/09/10 12:03:19;;;;;;;9.65;5.80;;;;;;;;;;5037636;28;20032;-63
2022/09/10 12:05:52;;;;;;;10.27;6.05;;;;;;;;;;5050421;28;20045;-63
2022/09/10 12:08:28;;;;;;;8.57;5.95;;;;;;;;;;5050476;28;20119;-63
2022/09/10 12:11:06;;;;;;;9.25;6.40;;;;;;;;;;5050658;28;20045;-63
2022/09/10 12:13:36;;;;;;;9.73;6.60;;;;;;;;;;5050327;28;20041;-63
2022/09/10 12:16:07;;;;;;;11.68;5.88;;;;;;;;;;5050449;28;20045;-63
2022/09/10 12:18:41;;;;;;;13.23;7.22;;;;;;;;;;5050488;28;20395;-63
2022/09/10 12:21:13;;;;;;;11.10;6.72;;;;;;;;;;5050105;28;20041;-63
2022/09/10 12:23:39;;;;;;;11.18;6.70;;;;;;;;;;5050673;28;20041;-63
2022/09/10 12:26:09;;;;;;;9.68;6.47;;;;;;;;;;5041835;28;20064;-63
2022/09/10 12:28:41;;;;;;;11.00;7.65;;;;;;;;;;5030118;28;20045;-63
2022/09/10 12:31:08;;;;;;;;;;;;;;;;;;5031205;28;20068;-63
2022/09/10 12:33:35;;;;;;;10.32;6.75;;;;;;;;;;5030742;28;19916;-63
2022/09/10 12:36:02;;;;;;;11.38;6.47;;;;;;;;;;5030143;28;20045;-63
2022/09/10 12:38:47;;;;;;;12.68;6.30;;;;;;;;;;5012393;28;20060;-63
2022/09/10 12:41:34;;;;;;;12.25;6.50;;;;;;;;;;5030431;28;20090;-63
2022/09/10 12:44:01;;;;;;;9.63;6.10;;;;;;;;;;5029778;28;20384;-63
2022/09/10 12:46:30;;;;;;;9.95;6.22;;;;;;;;;;5030371;28;20037;-63
2022/09/10 12:48:56;;;;;;;8.70;5.93;;;;;;;;;;5030388;28;20116;-63
2022/09/10 12:51:41;;;;;;;11.95;6.65;;;;;;;;;;5030046;28;20072;-63
2022/09/10 12:54:26;;;;;;;12.02;6.30;;;;;;;;;;5030609;28;20042;-63
2022/09/10 12:57:02;;;;;;;9.90;5.97;;;;;;;;;;5029624;28;20048;-63
2022/09/10 12:59:31;;;;;;;10.43;5.32;;;;;;;;;;5030464;28;20107;-63
2022/09/10 13:01:58;;;;;;;6.80;4.97;;;;;;;;;;5030249;28;20125;-63
2022/09/10 13:04:33;;;;;;;10.25;6.97;;;;;;;;;;5047942;28;20041;-63
2022/09/10 13:07:02;;;;;;;8.00;5.50;;;;;;;;;;5049950;28;20120;-63
2022/09/10 13:09:30;;;;;;;9.68;5.60;;;;;;;;;;5049807;28;20041;-63
2022/09/10 13:11:58;;;;;;;7.90;5.43;;;;;;;;;;5031486;28;20044;-63
2022/09/10 13:14:30;;;;;;;9.63;5.68;;;;;;;;;;5050591;28;20044;-63
2022/09/10 13:16:56;;;;;;;9.88;5.30;;;;;;;;;;5053842;28;20147;-63
2022/09/10 13:19:22;;;;;;;5.97;4.93;;;;;;;;;;5053511;28;20162;-63
2022/09/10 13:21:49;;;;;;;8.98;5.32;;;;;;;;;;5053756;28;20076;-63
2022/09/10 13:24:34;;;;;;;7.88;4.88;;;;;;;;;;5053896;28;20047;-63
2022/09/10 13:27:18;;;;;;;5.63;3.97;;;;;;;;;;5036781;28;20041;-63
2022/09/10 13:29:48;;;;;;;8.00;4.53;;;;;;;;;;5033816;28;20132;-63
2022/09/10 13:32:54;;;;;;;7.22;4.00;;;;;;;;;;5033642;28;20073;-63
2022/09/10 13:35:20;;;;;;;7.55;4.68;;;;;;;;;;4932989;29;20062;-63
2022/09/10 13:37:46;;;;;;;7.07;4.38;;;;;;;;;;4933587;29;20046;-63
2022/09/10 13:40:27;;;;;;;7.53;4.60;;;;;;;;;;4980967;28;20128;-63
2022/09/10 13:43:05;;;;;;;6.88;4.80;;;;;;;;;;5033163;28;20048;-63
2022/09/10 13:45:41;;;;;;;9.52;5.20;;;;;;;;;;5015691;28;20041;-63
2022/09/10 13:48:13;;;;;;;6.43;4.70;;;;;;;;;;5033320;28;20496;-63
2022/09/10 13:50:49;;;;;;;7.03;3.80;;;;;;;;;;5033052;28;20404;-62
2022/09/10 13:53:16;;;;;;;6.65;4.28;;;;;;;;;;5033426;28;20049;-63
2022/09/10 13:55:54;;;;;;;6.22;3.38;;;;;;;;;;5033059;28;20041;-63
2022/09/10 13:58:27;;;;;;;6.20;3.42;;;;;;;;;;5033197;28;20056;-63
2022/09/10 14:00:54;;;;;;;7.05;3.55;;;;;;;;;;5033191;28;20121;-63
2022/09/10 14:03:30;;;;;;;5.72;3.97;;;;;;;;;;5041775;28;20029;-63
2022/09/10 14:06:17;;;;;;;6.40;3.97;;;;;;;;;;5053072;28;20404;-63
2022/09/10 14:08:48;;;;;;;7.63;4.50;;;;;;;;;;5035673;28;20138;-63
2022/09/10 14:11:19;;;;;;;3.72;3.22;;;;;;;;;;5052598;28;20072;-63
2022/09/10 14:13:45;;;;;;;4.25;3.00;;;;;;;;;;5052951;28;20045;-63
2022/09/10 14:16:13;;;;;;;5.10;3.53;;;;;;;;;;5052819;28;20507;-63
2022/09/10 14:18:42;;;;;;;3.72;2.75;;;;;;;;;;5052004;28;20049;-63
2022/09/10 14:21:10;;;;;;;4.15;2.97;;;;;;;;;;5052413;28;20045;-63
2022/09/10 14:23:39;;;;;;;3.38;1.98;;;;;;;;;;5052748;28;20033;-63
2022/09/10 14:26:09;;;;;;;5.40;2.33;;;;;;;;;;5042534;28;20045;-63
2022/09/10 14:28:35;;;;;;;5.95;3.13;;;;;;;;;;5032911;28;20029;-63
2022/09/10 14:31:21;;;;;;;5.55;3.00;;;;;;;;;;5032892;28;20045;-62
2022/09/10 14:33:47;;;;;;;6.68;3.90;;;;;;;;;;5032122;28;20049;-63
2022/09/10 14:36:33;;;;;;;9.80;3.75;;;;;;;;;;5032609;28;20134;-62
2022/09/10 14:38:59;;;;;;;5.95;3.38;;;;;;;;;;5032487;28;20045;-62